sensor_id;sensor_type;location;lat;lon;timestamp;temperature;humidity
39919;DHT22;25589;51.552;13.424;2023-04-01T00:02:06;11.20;99.90
39919;DHT22;25589;51.552;13.424;2023-04-01T00:04:32;11.20;99.90
39919;DHT22;25589;51.552;13.424;2023-04-01T00:06:58;11.40;99.90
39919;DHT22;25589;51.552;13.424;2023-04-01T00:09:23;11.30;99.90
39919;DHT22;25589;51.552;13.424;2023-04-01T00:11:49;10.80;99.90
39919;DHT22;25589;51.552;13.424;2023-04-01T00:14:14;11.50;99.90
39919;DHT22;25589;51.552;13.424;2023-04-01T00:16:40;11.20;99.90
39919;DHT22;25589;51.552;13.424;2023-04-01T00:19:06;11.30;99.90
39919;DHT22;25589;51.552;13.424;2023-04-01T00:21:31;11.30;99.90
39919;DHT22;25589;51.552;13.424;2023-04-01T00:23:57;11.00;99.90
39919;DHT22;25589;51.552;13.424;2023-04-01T00:26:23;11.10;99.90
39919;DHT22;25589;51.552;13.424;2023-04-01T00:28:50;11.90;99.90
39919;DHT22;25589;51.552;13.424;2023-04-01T00:31:16;11.20;99.90
39919;DHT22;25589;51.552;13.424;2023-04-01T00:33:42;11.30;99.90
39919;DHT22;25589;51.552;13.424;2023-04-01T00:36:19;11.30;99.90
39919;DHT22;25589;51.552;13.424;2023-04-01T00:38:45;11.30;99.90
39919;DHT22;25589;51.552;13.424;2023-04-01T00:41:12;11.20;99.90
39919;DHT22;25589;51.552;13.424;2023-04-01T00:43:41;11.20;99.90
39919;DHT22;25589;51.552;13.424;2023-04-01T00:46:06;11.10;99.90
39919;DHT22;25589;51.552;13.424;2023-04-01T00:48:36;11.80;99.90
39919;DHT22;25589;51.552;13.424;2023-04-01T00:53:30;11.10;99.90
39919;DHT22;25589;51.552;13.424;2023-04-01T00:56:01;11.10;99.90
39919;DHT22;25589;51.552;13.424;2023-04-01T00:58:31;10.70;99.90
39919;DHT22;25589;51.552;13.424;2023-04-01T01:00:59;11.10;99.90
39919;DHT22;25589;51.552;13.424;2023-04-01T01:03:25;10.50;99.90
39919;DHT22;25589;51.552;13.424;2023-04-01T01:09:13;10.80;99.90
39919;DHT22;25589;51.552;13.424;2023-04-01T01:11:56;11.30;99.90
39919;DHT22;25589;51.552;13.424;2023-04-01T01:31:50;11.00;99.90
39919;DHT22;25589;51.552;13.424;2023-04-01T01:34:27;10.60;99.90
39919;DHT22;25589;51.552;13.424;2023-04-01T01:37:01;12.30;99.90
39919;DHT22;25589;51.552;13.424;2023-04-01T01:39:30;11.60;99.90
39919;DHT22;25589;51.552;13.424;2023-04-01T01:42:00;11.40;99.90
39919;DHT22;25589;51.552;13.424;2023-04-01T01:46:56;10.90;99.90
39919;DHT22;25589;51.552;13.424;2023-04-01T01:49:22;10.70;99.90
39919;DHT22;25589;51.552;13.424;2023-04-01T01:51:48;10.80;99.90
39919;DHT22;25589;51.552;13.424;2023-04-01T01:54:16;11.00;99.90
39919;DHT22;25589;51.552;13.424;2023-04-01T01:56:45;11.00;99.90
39919;DHT22;25589;51.552;13.424;2023-04-01T01:59:12;11.00;99.90
39919;DHT22;25589;51.552;13.424;2023-04-01T02:01:42;11.00;99.90
39919;DHT22;25589;51.552;13.424;2023-04-01T02:04:13;11.00;99.90
39919;DHT22;25589;51.552;13.424;2023-04-01T02:06:44;10.90;99.90
39919;DHT22;25589;51.552;13.424;2023-04-01T02:09:12;11.30;99.90
39919;DHT22;25589;51.552;13.424;2023-04-01T02:11:52;11.10;99.90
39919;DHT22;25589;51.552;13.424;2023-04-01T02:14:40;11.10;99.90
39919;DHT22;25589;51.552;13.424;2023-04-01T02:17:10;11.10;99.90
39919;DHT22;25589;51.552;13.424;2023-04-01T02:19:40;11.20;99.90
39919;DHT22;25589;51.552;13.424;2023-04-01T02:22:13;11.20;99.90
39919;DHT22;25589;51.552;13.424;2023-04-01T02:24:40;10.80;99.90
39919;DHT22;25589;51.552;13.424;2023-04-01T02:27:06;11.30;99.90
39919;DHT22;25589;51.552;13.424;2023-04-01T02:29:32;11.30;99.90
39919;DHT22;25589;51.552;13.424;2023-04-01T02:31:58;11.30;99.90
39919;DHT22;25589;51.552;13.424;2023-04-01T02:34:26;11.50;99.90
39919;DHT22;25589;51.552;13.424;2023-04-01T02:36:52;12.40;99.90
39919;DHT22;25589;51.552;13.424;2023-04-01T02:39:19;11.60;99.90
39919;DHT22;25589;51.552;13.424;2023-04-01T02:41:46;11.20;99.90
39919;DHT22;25589;51.552;13.424;2023-04-01T02:44:13;11.20;99.90
39919;DHT22;25589;51.552;13.424;2023-04-01T02:46:39;10.70;99.90
39919;DHT22;25589;51.552;13.424;2023-04-01T02:49:05;11.40;99.90
39919;DHT22;25589;51.552;13.424;2023-04-01T02:51:31;11.20;99.90
39919;DHT22;25589;51.552;13.424;2023-04-01T02:53:57;11.20;99.90
39919;DHT22;25589;51.552;13.424;2023-04-01T02:56:23;11.20;99.90
39919;DHT22;25589;51.552;13.424;2023-04-01T02:58:49;11.10;99.90
39919;DHT22;25589;51.552;13.424;2023-04-01T03:01:14;11.30;99.90
39919;DHT22;25589;51.552;13.424;2023-04-01T03:03:40;11.30;99.90
39919;DHT22;25589;51.552;13.424;2023-04-01T03:06:08;11.30;99.90
39919;DHT22;25589;51.552;13.424;2023-04-01T03:08:34;11.30;99.90
39919;DHT22;25589;51.552;13.424;2023-04-01T03:10:59;11.60;99.90
39919;DHT22;25589;51.552;13.424;2023-04-01T03:13:25;11.40;99.90
39919;DHT22;25589;51.552;13.424;2023-04-01T03:15:51;11.40;99.90
39919;DHT22;25589;51.552;13.424;2023-04-01T03:18:17;12.10;99.90
39919;DHT22;25589;51.552;13.424;2023-04-01T03:20:43;10.60;99.90
39919;DHT22;25589;51.552;13.424;2023-04-01T03:23:09;11.40;99.90
39919;DHT22;25589;51.552;13.424;2023-04-01T03:25:35;11.30;99.90
39919;DHT22;25589;51.552;13.424;2023-04-01T03:28:01;11.70;99.90
39919;DHT22;25589;51.552;13.424;2023-04-01T03:30:26;12.10;99.90
39919;DHT22;25589;51.552;13.424;2023-04-01T03:32:52;11.40;99.90
39919;DHT22;25589;51.552;13.424;2023-04-01T03:35:18;11.40;99.90
39919;DHT22;25589;51.552;13.424;2023-04-01T03:37:45;11.10;99.90
39919;DHT22;25589;51.552;13.424;2023-04-01T03:40:11;11.50;99.90
39919;DHT22;25589;51.552;13.424;2023-04-01T03:42:37;10.60;99.90
39919;DHT22;25589;51.552;13.424;2023-04-01T03:45:03;11.40;99.90
39919;DHT22;25589;51.552;13.424;2023-04-01T03:47:29;11.50;99.90
39919;DHT22;25589;51.552;13.424;2023-04-01T03:49:56;11.70;99.90
39919;DHT22;25589;51.552;13.424;2023-04-01T03:52:22;11.40;99.90
39919;DHT22;25589;51.552;13.424;2023-04-01T03:54:48;10.90;99.90
39919;DHT22;25589;51.552;13.424;2023-04-01T03:57:14;11.40;99.90
39919;DHT22;25589;51.552;13.424;2023-04-01T03:59:40;11.70;99.90
39919;DHT22;25589;51.552;13.424;2023-04-01T04:02:06;11.40;99.90
39919;DHT22;25589;51.552;13.424;2023-04-01T04:04:31;11.40;99.90
39919;DHT22;25589;51.552;13.424;2023-04-01T04:06:58;11.40;99.90
39919;DHT22;25589;51.552;13.424;2023-04-01T04:09:24;11.40;99.90
39919;DHT22;25589;51.552;13.424;2023-04-01T04:11:50;11.20;99.90
39919;DHT22;25589;51.552;13.424;2023-04-01T04:14:16;11.40;99.90
39919;DHT22;25589;51.552;13.424;2023-04-01T04:16:42;11.40;99.90
39919;DHT22;25589;51.552;13.424;2023-04-01T04:19:09;11.40;99.90
39919;DHT22;25589;51.552;13.424;2023-04-01T04:21:35;11.40;99.90
39919;DHT22;25589;51.552;13.424;2023-04-01T04:24:01;11.40;99.90
39919;DHT22;25589;51.552;13.424;2023-04-01T04:26:34;11.40;99.90
39919;DHT22;25589;51.552;13.424;2023-04-01T04:29:02;11.40;99.90
39919;DHT22;25589;51.552;13.424;2023-04-01T04:36:24;11.50;99.90
39919;DHT22;25589;51.552;13.424;2023-04-01T04:38:51;11.50;99.90
39919;DHT22;25589;51.552;13.424;2023-04-01T04:43:52;11.50;99.90
39919;DHT22;25589;51.552;13.424;2023-04-01T04:46:19;11.60;99.90
39919;DHT22;25589;51.552;13.424;2023-04-01T04:48:46;11.50;99.90
39919;DHT22;25589;51.552;13.424;2023-04-01T04:51:14;11.50;99.90
39919;DHT22;25589;51.552;13.424;2023-04-01T04:53:40;11.70;99.90
39919;DHT22;25589;51.552;13.424;2023-04-01T04:56:06;11.50;99.90
39919;DHT22;25589;51.552;13.424;2023-04-01T04:58:39;11.90;99.90
39919;DHT22;25589;51.552;13.424;2023-04-01T05:01:08;11.50;99.90
39919;DHT22;25589;51.552;13.424;2023-04-01T05:03:34;10.90;99.90
39919;DHT22;25589;51.552;13.424;2023-04-01T05:06:00;11.70;99.90
39919;DHT22;25589;51.552;13.424;2023-04-01T05:08:26;11.60;99.90
39919;DHT22;25589;51.552;13.424;2023-04-01T05:10:51;11.50;99.90
39919;DHT22;25589;51.552;13.424;2023-04-01T05:13:17;10.70;99.90
39919;DHT22;25589;51.552;13.424;2023-04-01T05:15:45;11.70;99.90
39919;DHT22;25589;51.552;13.424;2023-04-01T05:18:11;11.60;99.90
39919;DHT22;25589;51.552;13.424;2023-04-01T05:20:36;11.60;99.90
39919;DHT22;25589;51.552;13.424;2023-04-01T05:23:02;11.60;99.90
39919;DHT22;25589;51.552;13.424;2023-04-01T05:25:28;12.30;99.90
39919;DHT22;25589;51.552;13.424;2023-04-01T05:27:54;11.60;99.90
39919;DHT22;25589;51.552;13.424;2023-04-01T05:30:19;11.60;99.90
39919;DHT22;25589;51.552;13.424;2023-04-01T05:33:07;11.60;99.90
39919;DHT22;25589;51.552;13.424;2023-04-01T05:35:33;11.60;99.90
39919;DHT22;25589;51.552;13.424;2023-04-01T05:38:00;11.60;99.90
39919;DHT22;25589;51.552;13.424;2023-04-01T05:40:25;11.50;99.90
39919;DHT22;25589;51.552;13.424;2023-04-01T05:42:51;11.60;99.90
39919;DHT22;25589;51.552;13.424;2023-04-01T05:45:17;11.90;99.90
39919;DHT22;25589;51.552;13.424;2023-04-01T05:48:03;11.50;99.90
39919;DHT22;25589;51.552;13.424;2023-04-01T05:50:34;11.60;99.90
39919;DHT22;25589;51.552;13.424;2023-04-01T05:53:01;11.40;99.90
39919;DHT22;25589;51.552;13.424;2023-04-01T05:55:26;11.60;99.90
39919;DHT22;25589;51.552;13.424;2023-04-01T05:57:52;11.70;99.90
39919;DHT22;25589;51.552;13.424;2023-04-01T06:00:18;11.90;99.90
39919;DHT22;25589;51.552;13.424;2023-04-01T06:02:45;11.70;99.90
39919;DHT22;25589;51.552;13.424;2023-04-01T06:05:23;11.70;99.90
39919;DHT22;25589;51.552;13.424;2023-04-01T06:07:58;11.70;99.90
39919;DHT22;25589;51.552;13.424;2023-04-01T06:11:12;11.40;99.90
39919;DHT22;25589;51.552;13.424;2023-04-01T06:16:35;11.70;99.90
39919;DHT22;25589;51.552;13.424;2023-04-01T06:22:08;12.60;99.90
39919;DHT22;25589;51.552;13.424;2023-04-01T06:29:58;11.60;99.90
39919;DHT22;25589;51.552;13.424;2023-04-01T06:38:12;11.80;99.90
39919;DHT22;25589;51.552;13.424;2023-04-01T06:41:09;11.70;99.90
39919;DHT22;25589;51.552;13.424;2023-04-01T06:43:55;11.70;99.90
39919;DHT22;25589;51.552;13.424;2023-04-01T06:47:19;11.50;99.90
39919;DHT22;25589;51.552;13.424;2023-04-01T06:50:29;11.70;99.90
39919;DHT22;25589;51.552;13.424;2023-04-01T06:56:22;11.90;99.90
39919;DHT22;25589;51.552;13.424;2023-04-01T06:59:07;11.60;99.90
39919;DHT22;25589;51.552;13.424;2023-04-01T07:01:41;12.20;99.90
39919;DHT22;25589;51.552;13.424;2023-04-01T07:04:13;12.00;99.90
39919;DHT22;25589;51.552;13.424;2023-04-01T07:06:50;11.90;99.90
39919;DHT22;25589;51.552;13.424;2023-04-01T07:09:25;11.80;99.90
39919;DHT22;25589;51.552;13.424;2023-04-01T07:15:28;12.10;99.90
39919;DHT22;25589;51.552;13.424;2023-04-01T07:18:02;12.10;99.90
39919;DHT22;25589;51.552;13.424;2023-04-01T07:20:32;12.40;99.90
39919;DHT22;25589;51.552;13.424;2023-04-01T07:23:00;12.20;99.90
39919;DHT22;25589;51.552;13.424;2023-04-01T07:28:34;12.50;99.90
39919;DHT22;25589;51.552;13.424;2023-04-01T07:31:11;12.20;99.90
39919;DHT22;25589;51.552;13.424;2023-04-01T07:36:31;12.30;99.90
39919;DHT22;25589;51.552;13.424;2023-04-01T07:39:06;12.90;99.90
39919;DHT22;25589;51.552;13.424;2023-04-01T07:45:02;12.60;99.90
39919;DHT22;25589;51.552;13.424;2023-04-01T07:56:05;12.50;99.90
39919;DHT22;25589;51.552;13.424;2023-04-01T07:58:55;12.60;99.90
39919;DHT22;25589;51.552;13.424;2023-04-01T08:04:47;12.80;99.90
39919;DHT22;25589;51.552;13.424;2023-04-01T08:07:23;12.60;99.90
39919;DHT22;25589;51.552;13.424;2023-04-01T08:10:27;12.60;99.90
39919;DHT22;25589;51.552;13.424;2023-04-01T08:17:02;12.60;99.90
39919;DHT22;25589;51.552;13.424;2023-04-01T08:19:56;12.50;99.90
39919;DHT22;25589;51.552;13.424;2023-04-01T08:22:38;13.10;99.90
39919;DHT22;25589;51.552;13.424;2023-04-01T08:25:25;11.70;99.90
39919;DHT22;25589;51.552;13.424;2023-04-01T08:28:17;12.50;99.90
39919;DHT22;25589;51.552;13.424;2023-04-01T08:30:49;12.50;99.90
39919;DHT22;25589;51.552;13.424;2023-04-01T08:33:25;12.90;99.90
39919;DHT22;25589;51.552;13.424;2023-04-01T08:36:08;12.70;99.90
39919;DHT22;25589;51.552;13.424;2023-04-01T08:38:50;12.60;99.90
39919;DHT22;25589;51.552;13.424;2023-04-01T08:41:48;12.60;99.90
39919;DHT22;25589;51.552;13.424;2023-04-01T08:45:06;12.70;99.90
39919;DHT22;25589;51.552;13.424;2023-04-01T08:47:52;12.60;99.90
39919;DHT22;25589;51.552;13.424;2023-04-01T08:50:36;12.40;99.90
39919;DHT22;25589;51.552;13.424;2023-04-01T08:56:40;11.80;99.90
39919;DHT22;25589;51.552;13.424;2023-04-01T08:59:28;12.80;99.90
39919;DHT22;25589;51.552;13.424;2023-04-01T09:07:51;12.70;99.90
39919;DHT22;25589;51.552;13.424;2023-04-01T09:10:43;12.70;99.90
39919;DHT22;25589;51.552;13.424;2023-04-01T09:14:07;12.60;99.90
39919;DHT22;25589;51.552;13.424;2023-04-01T09:16:48;12.70;99.90
39919;DHT22;25589;51.552;13.424;2023-04-01T09:28:02;12.50;99.90
39919;DHT22;25589;51.552;13.424;2023-04-01T09:33:48;12.50;99.90
39919;DHT22;25589;51.552;13.424;2023-04-01T09:44:59;12.70;99.90
39919;DHT22;25589;51.552;13.424;2023-04-01T09:56:42;13.10;99.90
39919;DHT22;25589;51.552;13.424;2023-04-01T10:08:33;13.40;99.90
39919;DHT22;25589;51.552;13.424;2023-04-01T10:19:55;13.00;99.90
39919;DHT22;25589;51.552;13.424;2023-04-01T10:25:29;13.10;99.90
39919;DHT22;25589;51.552;13.424;2023-04-01T10:34:34;13.20;99.90
39919;DHT22;25589;51.552;13.424;2023-04-01T10:40:02;12.60;99.90
39919;DHT22;25589;51.552;13.424;2023-04-01T10:45:59;13.30;99.90
39919;DHT22;25589;51.552;13.424;2023-04-01T11:00:41;13.30;99.90
39919;DHT22;25589;51.552;13.424;2023-04-01T11:04:12;13.50;99.90
39919;DHT22;25589;51.552;13.424;2023-04-01T11:24:39;13.90;99.90
39919;DHT22;25589;51.552;13.424;2023-04-01T11:33:47;13.90;99.90
39919;DHT22;25589;51.552;13.424;2023-04-01T11:36:33;14.50;99.90
39919;DHT22;25589;51.552;13.424;2023-04-01T11:39:32;14.20;99.90
39919;DHT22;25589;51.552;13.424;2023-04-01T11:48:35;14.40;99.90
39919;DHT22;25589;51.552;13.424;2023-04-01T11:51:28;14.50;99.90
39919;DHT22;25589;51.552;13.424;2023-04-01T12:00:01;14.50;99.90
39919;DHT22;25589;51.552;13.424;2023-04-01T12:05:38;14.50;99.90
39919;DHT22;25589;51.552;13.424;2023-04-01T12:11:00;14.60;99.90
39919;DHT22;25589;51.552;13.424;2023-04-01T12:21:38;14.80;99.90
39919;DHT22;25589;51.552;13.424;2023-04-01T12:24:29;14.70;99.90
39919;DHT22;25589;51.552;13.424;2023-04-01T12:27:23;14.20;99.90
39919;DHT22;25589;51.552;13.424;2023-04-01T12:32:49;14.20;99.90
39919;DHT22;25589;51.552;13.424;2023-04-01T12:41:07;13.60;99.90
39919;DHT22;25589;51.552;13.424;2023-04-01T12:47:09;13.90;99.90
39919;DHT22;25589;51.552;13.424;2023-04-01T12:52:13;14.30;99.90
39919;DHT22;25589;51.552;13.424;2023-04-01T12:57:32;14.50;99.90
39919;DHT22;25589;51.552;13.424;2023-04-01T13:00:08;14.60;99.90
39919;DHT22;25589;51.552;13.424;2023-04-01T13:02:51;14.60;99.90
39919;DHT22;25589;51.552;13.424;2023-04-01T13:05:36;14.60;99.90
39919;DHT22;25589;51.552;13.424;2023-04-01T13:13:43;14.50;99.90
39919;DHT22;25589;51.552;13.424;2023-04-01T13:16:17;14.60;99.90
39919;DHT22;25589;51.552;13.424;2023-04-01T13:19:25;14.70;99.90
39919;DHT22;25589;51.552;13.424;2023-04-01T13:21:58;15.30;99.90
39919;DHT22;25589;51.552;13.424;2023-04-01T13:24:59;14.20;99.90
39919;DHT22;25589;51.552;13.424;2023-04-01T13:27:40;14.70;99.90
39919;DHT22;25589;51.552;13.424;2023-04-01T13:30:19;15.20;99.90
39919;DHT22;25589;51.552;13.424;2023-04-01T13:33:02;14.80;99.90
39919;DHT22;25589;51.552;13.424;2023-04-01T13:44:02;15.20;99.90
39919;DHT22;25589;51.552;13.424;2023-04-01T13:52:39;15.20;99.90
39919;DHT22;25589;51.552;13.424;2023-04-01T13:55:33;15.60;99.90
39919;DHT22;25589;51.552;13.424;2023-04-01T14:09:30;15.90;99.90
39919;DHT22;25589;51.552;13.424;2023-04-01T14:15:07;15.80;99.90
39919;DHT22;25589;51.552;13.424;2023-04-01T14:23:52;15.90;99.90
39919;DHT22;25589;51.552;13.424;2023-04-01T14:29:12;15.70;99.90
39919;DHT22;25589;51.552;13.424;2023-04-01T14:38:02;15.70;99.90
39919;DHT22;25589;51.552;13.424;2023-04-01T14:43:44;15.40;99.90
39919;DHT22;25589;51.552;13.424;2023-04-01T14:51:46;15.30;99.90
39919;DHT22;25589;51.552;13.424;2023-04-01T14:54:15;15.20;99.90
39919;DHT22;25589;51.552;13.424;2023-04-01T14:57:09;15.20;99.90
39919;DHT22;25589;51.552;13.424;2023-04-01T14:59:40;15.20;99.90
39919;DHT22;25589;51.552;13.424;2023-04-01T15:02:33;15.10;99.90
39919;DHT22;25589;51.552;13.424;2023-04-01T15:05:24;14.90;99.90
39919;DHT22;25589;51.552;13.424;2023-04-01T15:08:03;15.20;99.90
39919;DHT22;25589;51.552;13.424;2023-04-01T15:21:41;14.40;99.90
39919;DHT22;25589;51.552;13.424;2023-04-01T15:24:24;14.40;99.90
39919;DHT22;25589;51.552;13.424;2023-04-01T15:32:29;14.40;99.90
39919;DHT22;25589;51.552;13.424;2023-04-01T15:35:26;14.50;99.90
39919;DHT22;25589;51.552;13.424;2023-04-01T15:38:20;14.40;99.90
39919;DHT22;25589;51.552;13.424;2023-04-01T15:43:46;14.40;99.90
39919;DHT22;25589;51.552;13.424;2023-04-01T15:52:16;14.40;99.90
39919;DHT22;25589;51.552;13.424;2023-04-01T15:58:01;14.40;99.90
39919;DHT22;25589;51.552;13.424;2023-04-01T16:00:43;14.30;99.90
39919;DHT22;25589;51.552;13.424;2023-04-01T16:06:00;14.10;99.90
39919;DHT22;25589;51.552;13.424;2023-04-01T16:08:44;14.20;99.90
39919;DHT22;25589;51.552;13.424;2023-04-01T16:12:03;14.10;99.90
39919;DHT22;25589;51.552;13.424;2023-04-01T16:14:50;14.10;99.90
39919;DHT22;25589;51.552;13.424;2023-04-01T16:17:30;14.00;99.90
39919;DHT22;25589;51.552;13.424;2023-04-01T16:23:09;14.00;99.90
39919;DHT22;25589;51.552;13.424;2023-04-01T16:25:39;13.90;99.90
39919;DHT22;25589;51.552;13.424;2023-04-01T16:28:32;14.00;99.90
39919;DHT22;25589;51.552;13.424;2023-04-01T16:31:32;13.90;99.90
39919;DHT22;25589;51.552;13.424;2023-04-01T16:34:24;13.90;99.90
39919;DHT22;25589;51.552;13.424;2023-04-01T16:37:22;13.80;99.90
39919;DHT22;25589;51.552;13.424;2023-04-01T16:42:57;13.80;99.90
39919;DHT22;25589;51.552;13.424;2023-04-01T16:45:42;14.10;99.90
39919;DHT22;25589;51.552;13.424;2023-04-01T16:48:13;13.90;99.90
39919;DHT22;25589;51.552;13.424;2023-04-01T16:50:58;13.80;99.90
39919;DHT22;25589;51.552;13.424;2023-04-01T16:53:45;13.40;99.90
39919;DHT22;25589;51.552;13.424;2023-04-01T16:56:23;13.30;99.90
39919;DHT22;25589;51.552;13.424;2023-04-01T17:04:11;12.60;99.90
39919;DHT22;25589;51.552;13.424;2023-04-01T17:12:21;12.70;99.90
39919;DHT22;25589;51.552;13.424;2023-04-01T17:15:29;12.70;99.90
39919;DHT22;25589;51.552;13.424;2023-04-01T17:18:23;12.60;99.90
39919;DHT22;25589;51.552;13.424;2023-04-01T17:23:59;12.50;99.90
39919;DHT22;25589;51.552;13.424;2023-04-01T17:35:12;12.10;99.90
39919;DHT22;25589;51.552;13.424;2023-04-01T17:44:22;11.90;99.90
39919;DHT22;25589;51.552;13.424;2023-04-01T17:47:30;11.90;99.90
39919;DHT22;25589;51.552;13.424;2023-04-01T17:52:42;11.80;99.90
39919;DHT22;25589;51.552;13.424;2023-04-01T17:58:21;11.70;99.90
39919;DHT22;25589;51.552;13.424;2023-04-01T18:01:02;11.60;99.90
39919;DHT22;25589;51.552;13.424;2023-04-01T18:09:48;11.70;99.90
39919;DHT22;25589;51.552;13.424;2023-04-01T18:15:06;11.40;99.90
39919;DHT22;25589;51.552;13.424;2023-04-01T18:17:49;11.40;99.90
39919;DHT22;25589;51.552;13.424;2023-04-01T18:20:20;11.40;99.90
39919;DHT22;25589;51.552;13.424;2023-04-01T18:25:44;10.60;99.90
39919;DHT22;25589;51.552;13.424;2023-04-01T18:28:42;11.20;99.90
39919;DHT22;25589;51.552;13.424;2023-04-01T18:31:19;11.20;99.90
39919;DHT22;25589;51.552;13.424;2023-04-01T18:36:33;11.30;99.90
39919;DHT22;25589;51.552;13.424;2023-04-01T18:41:53;11.00;99.90
39919;DHT22;25589;51.552;13.424;2023-04-01T18:47:14;10.60;99.90
39919;DHT22;25589;51.552;13.424;2023-04-01T18:50:21;10.90;99.90
39919;DHT22;25589;51.552;13.424;2023-04-01T18:52:56;11.30;99.90
39919;DHT22;25589;51.552;13.424;2023-04-01T18:55:37;11.70;99.90
39919;DHT22;25589;51.552;13.424;2023-04-01T19:04:14;10.60;99.90
39919;DHT22;25589;51.552;13.424;2023-04-01T19:09:47;10.50;99.90
39919;DHT22;25589;51.552;13.424;2023-04-01T19:12:41;10.80;99.90
39919;DHT22;25589;51.552;13.424;2023-04-01T19:15:28;10.40;99.90
39919;DHT22;25589;51.552;13.424;2023-04-01T19:20:52;10.40;99.90
39919;DHT22;25589;51.552;13.424;2023-04-01T19:23:42;10.40;99.90
39919;DHT22;25589;51.552;13.424;2023-04-01T19:28:55;9.80;99.90
39919;DHT22;25589;51.552;13.424;2023-04-01T19:31:37;10.20;99.90
39919;DHT22;25589;51.552;13.424;2023-04-01T19:34:21;10.30;99.90
39919;DHT22;25589;51.552;13.424;2023-04-01T19:36:52;10.40;99.90
39919;DHT22;25589;51.552;13.424;2023-04-01T19:44:56;10.20;99.90
39919;DHT22;25589;51.552;13.424;2023-04-01T19:47:48;10.80;99.90
39919;DHT22;25589;51.552;13.424;2023-04-01T19:50:46;10.10;99.90
39919;DHT22;25589;51.552;13.424;2023-04-01T19:53:31;10.10;99.90
39919;DHT22;25589;51.552;13.424;2023-04-01T19:56:12;10.10;99.90
39919;DHT22;25589;51.552;13.424;2023-04-01T20:07:06;9.80;99.90
39919;DHT22;25589;51.552;13.424;2023-04-01T20:10:10;10.30;99.90
39919;DHT22;25589;51.552;13.424;2023-04-01T20:15:36;9.90;99.90
39919;DHT22;25589;51.552;13.424;2023-04-01T20:18:41;10.10;99.90
39919;DHT22;25589;51.552;13.424;2023-04-01T20:25:20;9.90;99.90
39919;DHT22;25589;51.552;13.424;2023-04-01T20:28:04;9.90;99.90
39919;DHT22;25589;51.552;13.424;2023-04-01T20:42:12;9.60;99.90
39919;DHT22;25589;51.552;13.424;2023-04-01T20:48:05;10.20;99.90
39919;DHT22;25589;51.552;13.424;2023-04-01T20:56:20;9.30;99.90
39919;DHT22;25589;51.552;13.424;2023-04-01T20:59:35;9.20;99.90
39919;DHT22;25589;51.552;13.424;2023-04-01T21:02:28;9.30;99.90
39919;DHT22;25589;51.552;13.424;2023-04-01T21:08:24;9.10;99.90
39919;DHT22;25589;51.552;13.424;2023-04-01T21:11:01;8.50;99.90
39919;DHT22;25589;51.552;13.424;2023-04-01T21:16:19;9.10;99.90
39919;DHT22;25589;51.552;13.424;2023-04-01T21:22:05;9.00;99.90
39919;DHT22;25589;51.552;13.424;2023-04-01T21:33:06;8.90;99.90
39919;DHT22;25589;51.552;13.424;2023-04-01T21:35:58;9.80;99.90
39919;DHT22;25589;51.552;13.424;2023-04-01T21:38:42;9.00;99.90
39919;DHT22;25589;51.552;13.424;2023-04-01T21:41:23;7.90;99.90
39919;DHT22;25589;51.552;13.424;2023-04-01T21:44:27;9.00;99.90
39919;DHT22;25589;51.552;13.424;2023-04-01T21:50:27;8.50;99.90
39919;DHT22;25589;51.552;13.424;2023-04-01T21:54:20;8.80;99.90
39919;DHT22;25589;51.552;13.424;2023-04-01T21:56:32;7.80;99.90
39919;DHT22;25589;51.552;13.424;2023-04-01T22:10:22;8.90;99.90
39919;DHT22;25589;51.552;13.424;2023-04-01T22:13:00;8.40;99.90
39919;DHT22;25589;51.552;13.424;2023-04-01T22:15:54;8.50;99.90
39919;DHT22;25589;51.552;13.424;2023-04-01T22:18:33;8.40;99.90
39919;DHT22;25589;51.552;13.424;2023-04-01T22:21:19;8.40;99.90
39919;DHT22;25589;51.552;13.424;2023-04-01T22:24:18;8.30;99.90
39919;DHT22;25589;51.552;13.424;2023-04-01T22:30:12;8.10;99.90
39919;DHT22;25589;51.552;13.424;2023-04-01T22:35:18;8.00;99.90
39919;DHT22;25589;51.552;13.424;2023-04-01T22:38:03;7.70;99.90
39919;DHT22;25589;51.552;13.424;2023-04-01T22:43:38;8.20;99.90
39919;DHT22;25589;51.552;13.424;2023-04-01T22:54:24;7.80;99.90
39919;DHT22;25589;51.552;13.424;2023-04-01T22:59:34;7.90;99.90
39919;DHT22;25589;51.552;13.424;2023-04-01T23:02:31;7.90;99.90
39919;DHT22;25589;51.552;13.424;2023-04-01T23:05:00;7.90;99.90
39919;DHT22;25589;51.552;13.424;2023-04-01T23:12:55;7.80;99.90
39919;DHT22;25589;51.552;13.424;2023-04-01T23:15:23;7.80;99.90
39919;DHT22;25589;51.552;13.424;2023-04-01T23:18:27;7.80;99.90
39919;DHT22;25589;51.552;13.424;2023-04-01T23:21:11;7.60;99.90
39919;DHT22;25589;51.552;13.424;2023-04-01T23:24:15;8.70;99.90
39919;DHT22;25589;51.552;13.424;2023-04-01T23:27:17;7.50;99.90
39919;DHT22;25589;51.552;13.424;2023-04-01T23:29:45;8.00;99.90
39919;DHT22;25589;51.552;13.424;2023-04-01T23:32:16;7.60;99.90
39919;DHT22;25589;51.552;13.424;2023-04-01T23:34:54;7.50;99.90
39919;DHT22;25589;51.552;13.424;2023-04-01T23:37:21;6.80;99.90
39919;DHT22;25589;51.552;13.424;2023-04-01T23:39:53;7.60;99.90
39919;DHT22;25589;51.552;13.424;2023-04-01T23:42:38;6.60;99.90
39919;DHT22;25589;51.552;13.424;2023-04-01T23:45:16;7.50;99.90
39919;DHT22;25589;51.552;13.424;2023-04-01T23:47:46;7.50;99.90
39919;DHT22;25589;51.552;13.424;2023-04-01T23:50:20;7.50;99.90
39919;DHT22;25589;51.552;13.424;2023-04-01T23:55:25;7.60;99.90
